createdAt,value
2023-01-10T00:00:23.623Z,99109.13
2023-01-10T00:02:51.046Z,99105.22
2023-01-10T00:05:18.395Z,99122.31
2023-01-10T00:07:45.746Z,99128.75
2023-01-10T00:10:12.372Z,99120.00
2023-01-10T00:12:57.244Z,99125.53
2023-01-10T00:15:23.709Z,99129.56
2023-01-10T00:17:50.107Z,99141.44
2023-01-10T00:20:16.744Z,99149.72
2023-01-10T00:22:43.516Z,99152.25
2023-01-10T00:25:09.924Z,99157.56
2023-01-10T00:27:36.514Z,99171.06
2023-01-10T00:30:13.952Z,99182.34
2023-01-10T00:32:42.037Z,99175.19
2023-01-10T00:35:09.422Z,99174.50
2023-01-10T00:37:36.440Z,99176.59
2023-01-10T00:40:03.756Z,99174.03
2023-01-10T00:42:49.747Z,99179.94
2023-01-10T00:45:16.609Z,99187.66
2023-01-10T00:47:43.513Z,99196.97
2023-01-10T00:50:11.625Z,99192.94
2023-01-10T00:52:38.124Z,99199.63
2023-01-10T00:55:05.209Z,99208.38
2023-01-10T00:57:31.633Z,99206.66
2023-01-10T00:59:58.187Z,99220.25
2023-01-10T01:02:24.852Z,99218.53
2023-01-10T01:04:51.404Z,99226.47
2023-01-10T01:07:17.803Z,99240.09
2023-01-10T01:10:02.869Z,99248.38
2023-01-10T01:12:29.429Z,99248.25
2023-01-10T01:14:55.912Z,99252.28
2023-01-10T01:17:22.335Z,99250.34
2023-01-10T01:19:48.770Z,99258.50
2023-01-10T01:22:15.213Z,99269.81
2023-01-10T01:24:42.183Z,99273.16
2023-01-10T01:27:08.563Z,99275.81
2023-01-10T01:29:43.136Z,99278.13
2023-01-10T01:32:10.470Z,99281.00
2023-01-10T01:34:37.231Z,99284.81
2023-01-10T01:37:03.716Z,99295.41
2023-01-10T01:39:30.133Z,99288.84
2023-01-10T01:42:00.250Z,99285.72
2023-01-10T01:44:32.517Z,99283.78
2023-01-10T01:47:07.371Z,99293.78
2023-01-10T01:49:39.647Z,99291.72
2023-01-10T01:52:10.204Z,99295.66
2023-01-10T01:54:37.075Z,99300.94
2023-01-10T01:57:07.339Z,99301.28
2023-01-10T01:59:38.133Z,99306.69
2023-01-10T02:02:30.659Z,99305.53
2023-01-10T02:05:09.280Z,99312.69
2023-01-10T02:07:38.102Z,99310.38
2023-01-10T02:10:17.925Z,99313.03
2023-01-10T02:12:45.897Z,99315.78
2023-01-10T02:15:13.087Z,99304.94
2023-01-10T02:17:40.011Z,99316.81
2023-01-10T02:20:09.531Z,99312.31
2023-01-10T02:23:06.321Z,99322.56
2023-01-10T02:26:10.440Z,99326.78
2023-01-10T02:28:55.860Z,99329.38
2023-01-10T02:31:44.157Z,99327.59
2023-01-10T02:34:38.802Z,99340.13
2023-01-10T02:37:14.680Z,99329.88
2023-01-10T02:39:59.272Z,99338.66
2023-01-10T02:42:31.665Z,99342.09
2023-01-10T02:45:04.749Z,99340.22
2023-01-10T02:47:38.715Z,99345.06
2023-01-10T02:50:30.465Z,99357.00
2023-01-10T02:53:00.239Z,99365.56
2023-01-10T02:55:39.776Z,99367.50
2023-01-10T02:58:26.015Z,99369.81
2023-01-10T03:00:58.211Z,99389.16
2023-01-10T03:03:44.570Z,99389.47
2023-01-10T03:06:19.457Z,99398.13
2023-01-10T03:08:56.565Z,99393.06
2023-01-10T03:11:40.050Z,99404.59
2023-01-10T03:14:23.074Z,99409.09
2023-01-10T03:16:59.141Z,99402.75
2023-01-10T03:19:29.870Z,99415.97
2023-01-10T03:21:57.700Z,99420.34
2023-01-10T03:24:30.590Z,99426.22
2023-01-10T03:27:22.001Z,99423.66
2023-01-10T03:29:53.749Z,99419.28
2023-01-10T03:32:23.977Z,99437.00
2023-01-10T03:34:50.567Z,99438.28
2023-01-10T03:37:47.953Z,99447.72
2023-01-10T03:40:30.793Z,99451.09
2023-01-10T03:43:29.749Z,99464.72
2023-01-10T03:46:03.942Z,99470.91
2023-01-10T03:48:34.113Z,99478.41
2023-01-10T03:51:03.248Z,99480.00
2023-01-10T03:53:31.423Z,99475.88
2023-01-10T03:55:57.886Z,99485.31
2023-01-10T03:58:24.395Z,99483.84
2023-01-10T04:00:51.141Z,99482.22
2023-01-10T04:03:17.712Z,99488.56
2023-01-10T04:05:44.125Z,99498.34
2023-01-10T04:08:10.903Z,99502.59
2023-01-10T04:10:38.058Z,99511.69
2023-01-10T04:13:05.460Z,99514.59
2023-01-10T04:15:32.309Z,99517.03
2023-01-10T04:17:58.778Z,99519.47
2023-01-10T04:20:27.244Z,99522.50
2023-01-10T04:22:54.743Z,99527.22
2023-01-10T04:25:22.551Z,99535.84
2023-01-10T04:27:52.486Z,99542.19
2023-01-10T04:30:19.849Z,99544.16
2023-01-10T04:32:47.283Z,99553.25
2023-01-10T04:35:13.856Z,99552.59
2023-01-10T04:37:40.231Z,99560.72
2023-01-10T04:40:07.345Z,99565.44
2023-01-10T04:42:34.037Z,99568.06
2023-01-10T04:45:00.954Z,99566.47
2023-01-10T04:47:27.382Z,99573.13
2023-01-10T04:49:53.836Z,99584.34
2023-01-10T04:52:20.402Z,99592.63
2023-01-10T04:54:46.769Z,99590.19
2023-01-10T04:57:13.210Z,99594.59
2023-01-10T04:59:39.755Z,99603.34
2023-01-10T05:02:06.260Z,99597.34
2023-01-10T05:04:32.790Z,99600.59
2023-01-10T05:06:59.199Z,99608.88
2023-01-10T05:09:25.641Z,99618.63
2023-01-10T05:11:52.022Z,99632.09
2023-01-10T05:14:18.448Z,99631.66
2023-01-10T05:16:44.917Z,99633.44
2023-01-10T05:19:12.131Z,99634.91
2023-01-10T05:21:38.660Z,99632.63
2023-01-10T05:24:05.484Z,99646.59
2023-01-10T05:26:31.945Z,99649.03
2023-01-10T05:28:58.445Z,99654.91
2023-01-10T05:31:25.333Z,99649.88
2023-01-10T05:33:52.232Z,99653.13
2023-01-10T05:36:19.574Z,99659.94
2023-01-10T05:38:46.282Z,99665.47
2023-01-10T05:41:12.745Z,99666.78
2023-01-10T05:43:39.251Z,99677.88
2023-01-10T05:46:05.841Z,99681.28
2023-01-10T05:48:32.422Z,99673.31
2023-01-10T05:50:58.910Z,99688.13
2023-01-10T05:53:25.323Z,99694.31
2023-01-10T05:55:56.790Z,99701.47
2023-01-10T05:58:23.588Z,99699.16
2023-01-10T06:00:50.377Z,99701.94
2023-01-10T06:03:17.194Z,99703.22
2023-01-10T06:05:43.626Z,99709.25
2023-01-10T06:08:10.189Z,99719.97
2023-01-10T06:10:36.599Z,99734.47
2023-01-10T06:13:04.967Z,99729.75
2023-01-10T06:15:33.959Z,99733.66
2023-01-10T06:18:00.437Z,99741.78
2023-01-10T06:20:27.165Z,99748.47
2023-01-10T06:22:53.698Z,99759.50
2023-01-10T06:25:20.464Z,99764.22
2023-01-10T06:27:47.000Z,99768.44
2023-01-10T06:30:14.102Z,99773.00
2023-01-10T06:32:41.092Z,99779.19
2023-01-10T06:35:08.403Z,99780.34
2023-01-10T06:37:34.846Z,99787.50
2023-01-10T06:40:01.311Z,99794.81
2023-01-10T06:42:27.760Z,99786.03
2023-01-10T06:44:54.165Z,99799.06
2023-01-10T06:47:20.616Z,99798.41
2023-01-10T06:49:46.994Z,99810.25
2023-01-10T06:52:13.441Z,99818.53
2023-01-10T06:54:41.432Z,99818.06
2023-01-10T06:57:08.300Z,99819.19
2023-01-10T06:59:34.749Z,99827.97
2023-01-10T07:02:01.391Z,99833.81
2023-01-10T07:04:27.923Z,99839.03
2023-01-10T07:06:54.641Z,99848.63
2023-01-10T07:09:21.135Z,99849.13
2023-01-10T07:11:47.505Z,99847.00
2023-01-10T07:14:13.939Z,99859.00
2023-01-10T07:16:40.326Z,99861.09
2023-01-10T07:19:06.753Z,99863.53
2023-01-10T07:21:33.129Z,99874.09
2023-01-10T07:24:02.433Z,99883.19
2023-01-10T07:26:29.819Z,99888.56
2023-01-10T07:28:56.748Z,99887.41
2023-01-10T07:31:24.529Z,99894.56
2023-01-10T07:33:52.253Z,99907.91
2023-01-10T07:36:19.099Z,99909.69
2023-01-10T07:38:45.571Z,99916.03
2023-01-10T07:41:12.350Z,99916.69
2023-01-10T07:43:38.727Z,99915.72
2023-01-10T07:46:09.423Z,99925.78
2023-01-10T07:48:36.710Z,99931.50
2023-01-10T07:51:03.973Z,99925.97
2023-01-10T07:53:30.389Z,99937.34
2023-01-10T07:56:01.507Z,99938.66
2023-01-10T07:58:28.567Z,99939.63
2023-01-10T08:00:59.459Z,99938.31
2023-01-10T08:03:26.168Z,99947.78
2023-01-10T08:06:04.716Z,99953.00
2023-01-10T08:08:31.365Z,99960.47
2023-01-10T08:10:59.621Z,99949.75
2023-01-10T08:13:26.868Z,99959.34
2023-01-10T08:15:53.413Z,99967.00
2023-01-10T08:18:21.441Z,99965.53
2023-01-10T08:20:52.312Z,99967.81
2023-01-10T08:23:19.719Z,99969.44
2023-01-10T08:25:46.429Z,99978.19
2023-01-10T08:28:13.203Z,99985.19
2023-01-10T08:30:40.197Z,99983.41
2023-01-10T08:33:08.087Z,99982.44
2023-01-10T08:35:43.466Z,99998.53
2023-01-10T08:38:11.678Z,99995.63
2023-01-10T08:40:38.556Z,99998.88
2023-01-10T08:43:08.080Z,100001.38
2023-01-10T08:45:35.327Z,100004.84
2023-01-10T08:48:02.389Z,100002.88
2023-01-10T08:50:29.425Z,100006.47
2023-01-10T08:52:59.630Z,100014.28
2023-01-10T08:55:26.947Z,100025.53
2023-01-10T08:57:53.711Z,100025.66
2023-01-10T09:00:21.145Z,100023.13
2023-01-10T09:02:47.928Z,100025.25
2023-01-10T09:05:26.313Z,100032.03
2023-01-10T09:07:57.790Z,100026.78
2023-01-10T09:10:24.400Z,100032.69
2023-01-10T09:12:56.941Z,100031.97
2023-01-10T09:15:25.120Z,100034.78
2023-01-10T09:17:56.782Z,100050.72
2023-01-10T09:20:25.009Z,100051.53
2023-01-10T09:22:51.985Z,100056.34
2023-01-10T09:25:18.491Z,100067.09
2023-01-10T09:27:45.083Z,100074.69
2023-01-10T09:30:12.524Z,100094.44
2023-01-10T09:32:39.388Z,100092.03
2023-01-10T09:35:06.086Z,100106.22
2023-01-10T09:37:33.834Z,100104.03
2023-01-10T09:40:00.449Z,100111.69
2023-01-10T09:42:50.584Z,100113.31
2023-01-10T09:45:22.020Z,100116.84
2023-01-10T09:48:12.409Z,100108.38
2023-01-10T09:50:57.333Z,100109.34
2023-01-10T09:53:25.759Z,100115.53
2023-01-10T09:55:57.345Z,100126.09
2023-01-10T09:58:29.564Z,100114.88
2023-01-10T10:00:59.353Z,100113.56
2023-01-10T10:03:26.159Z,100121.72
2023-01-10T10:06:00.848Z,100123.34
2023-01-10T10:08:33.681Z,100123.34
2023-01-10T10:11:28.356Z,100115.53
2023-01-10T10:14:21.222Z,100119.78
2023-01-10T10:17:23.711Z,100112.44
2023-01-10T10:20:05.522Z,100113.72
2023-01-10T10:22:57.253Z,100115.69
2023-01-10T10:26:02.572Z,100112.09
2023-01-10T10:28:59.016Z,100118.31
2023-01-10T10:31:25.644Z,100121.91
2023-01-10T10:34:12.913Z,100116.84
2023-01-10T10:36:59.398Z,100118.16
2023-01-10T10:39:36.320Z,100116.91
2023-01-10T10:42:05.754Z,100113.63
2023-01-10T10:44:41.920Z,100114.78
2023-01-10T10:47:20.625Z,100119.34
2023-01-10T10:50:00.856Z,100113.81
2023-01-10T10:52:34.491Z,100110.19
2023-01-10T10:55:01.875Z,100125.34
2023-01-10T10:57:30.258Z,100119.84
2023-01-10T10:59:58.218Z,100136.28
2023-01-10T11:02:29.996Z,100136.13
2023-01-10T11:04:59.856Z,100148.66
2023-01-10T11:07:30.031Z,100147.69
2023-01-10T11:10:07.298Z,100150.28
2023-01-10T11:12:36.245Z,100141.97
2023-01-10T11:15:03.353Z,100148.34
2023-01-10T11:17:31.828Z,100148.34
2023-01-10T11:20:06.585Z,100161.03
2023-01-10T11:22:50.945Z,100156.31
2023-01-10T11:25:19.013Z,100152.41
2023-01-10T11:27:51.841Z,100150.81
2023-01-10T11:30:21.823Z,100152.59
2023-01-10T11:32:52.792Z,100161.88
2023-01-10T11:35:27.032Z,100156.66
2023-01-10T11:38:09.751Z,100153.06
2023-01-10T11:40:38.972Z,100151.91
2023-01-10T11:43:26.716Z,100155.91
2023-01-10T11:45:59.265Z,100154.38
2023-01-10T11:48:50.342Z,100142.13
2023-01-10T11:51:59.635Z,100148.16
2023-01-10T11:54:28.053Z,100143.25
2023-01-10T11:57:07.602Z,100150.56
2023-01-10T11:59:34.278Z,100160.41
2023-01-10T12:02:28.002Z,100160.94
2023-01-10T12:04:55.778Z,100162.03
2023-01-10T12:07:22.867Z,100157.22
2023-01-10T12:09:56.682Z,100166.16
2023-01-10T12:12:31.271Z,100178.50
2023-01-10T12:14:59.133Z,100175.84
2023-01-10T12:17:29.349Z,100174.84
2023-01-10T12:20:00.495Z,100169.03
2023-01-10T12:22:41.414Z,100182.16
2023-01-10T12:25:20.738Z,100183.31
2023-01-10T12:27:50.325Z,100185.91
2023-01-10T12:30:31.399Z,100186.53
2023-01-10T12:33:02.118Z,100183.50
2023-01-10T12:35:38.788Z,100194.44
2023-01-10T12:38:51.131Z,100186.13
2023-01-10T12:42:08.609Z,100190.72
2023-01-10T12:44:44.098Z,100194.69
2023-01-10T12:47:31.149Z,100198.34
2023-01-10T12:50:03.398Z,100191.13
2023-01-10T12:52:42.721Z,100204.38
2023-01-10T12:55:14.622Z,100200.03
2023-01-10T12:57:43.068Z,100201.81
2023-01-10T13:00:37.587Z,100211.84
2023-01-10T13:03:16.901Z,100224.31
2023-01-10T13:05:43.940Z,100221.22
2023-01-10T13:08:13.511Z,100215.06
2023-01-10T13:10:43.627Z,100217.34
2023-01-10T13:13:36.454Z,100219.59
2023-01-10T13:16:24.932Z,100230.38
2023-01-10T13:19:09.825Z,100226.59
2023-01-10T13:21:38.246Z,100230.03
2023-01-10T13:24:07.119Z,100227.78
2023-01-10T13:26:53.011Z,100225.84
2023-01-10T13:29:39.430Z,100222.41
2023-01-10T13:32:27.757Z,100228.66
2023-01-10T13:34:55.405Z,100234.53
2023-01-10T13:37:23.343Z,100241.22
2023-01-10T13:39:55.711Z,100237.00
2023-01-10T13:42:51.083Z,100240.09
2023-01-10T13:45:31.319Z,100246.63
2023-01-10T13:47:59.710Z,100250.22
2023-01-10T13:50:33.491Z,100251.34
2023-01-10T13:53:03.982Z,100255.13
2023-01-10T13:55:42.752Z,100262.44
2023-01-10T13:58:09.877Z,100265.25
2023-01-10T14:00:55.418Z,100275.66
2023-01-10T14:03:40.823Z,100266.06
2023-01-10T14:06:28.803Z,100268.34
2023-01-10T14:09:05.110Z,100265.19
2023-01-10T14:11:43.937Z,100264.97
2023-01-10T14:14:32.416Z,100265.78
2023-01-10T14:17:18.697Z,100262.53
2023-01-10T14:19:47.702Z,100263.25
2023-01-10T14:22:31.037Z,100271.09
2023-01-10T14:24:59.789Z,100275.66
2023-01-10T14:27:32.231Z,100277.78
2023-01-10T14:29:59.633Z,100270.13
2023-01-10T14:32:32.529Z,100271.09
2023-01-10T14:35:01.697Z,100267.69
2023-01-10T14:37:32.196Z,100276.97
2023-01-10T14:39:59.333Z,100263.09
2023-01-10T14:42:26.215Z,100266.50
2023-01-10T14:45:20.705Z,100264.88
2023-01-10T14:47:48.840Z,100262.44
2023-01-10T14:50:31.186Z,100261.16
2023-01-10T14:53:00.587Z,100261.78
2023-01-10T14:55:28.048Z,100269.63
2023-01-10T14:57:59.088Z,100265.88
2023-01-10T15:00:36.433Z,100263.59
2023-01-10T15:03:04.217Z,100263.91
2023-01-10T15:05:33.171Z,100261.97
2023-01-10T15:08:28.504Z,100265.53
2023-01-10T15:10:58.026Z,100268.63
2023-01-10T15:13:28.804Z,100278.72
2023-01-10T15:15:56.060Z,100279.66
2023-01-10T15:18:36.277Z,100287.31
2023-01-10T15:21:03.412Z,100289.59
2023-01-10T15:23:38.388Z,100295.94
2023-01-10T15:26:10.497Z,100302.13
2023-01-10T15:28:37.469Z,100298.34
2023-01-10T15:31:05.754Z,100309.78
2023-01-10T15:33:33.154Z,100309.47
2023-01-10T15:36:08.339Z,100305.53
2023-01-10T15:38:38.301Z,100308.13
2023-01-10T15:41:06.605Z,100308.75
2023-01-10T15:43:35.326Z,100308.25
2023-01-10T15:46:04.271Z,100309.41
2023-01-10T15:48:35.394Z,100315.75
2023-01-10T15:51:14.459Z,100318.66
2023-01-10T15:54:03.723Z,100315.09
2023-01-10T15:56:34.855Z,100330.38
2023-01-10T15:59:03.025Z,100317.03
2023-01-10T16:01:31.437Z,100318.53
2023-01-10T16:04:04.484Z,100323.72
2023-01-10T16:06:32.550Z,100329.56
2023-01-10T16:09:02.049Z,100328.56
2023-01-10T16:11:55.374Z,100321.44
2023-01-10T16:14:22.195Z,100320.00
2023-01-10T16:16:48.965Z,100319.88
2023-01-10T16:19:15.454Z,100312.53
2023-01-10T16:21:47.253Z,100306.50
2023-01-10T16:24:17.819Z,100314.63
2023-01-10T16:26:44.656Z,100317.84
2023-01-10T16:29:11.791Z,100315.47
2023-01-10T16:31:38.210Z,100311.38
2023-01-10T16:34:04.781Z,100316.91
2023-01-10T16:36:31.179Z,100320.31
2023-01-10T16:38:57.629Z,100308.06
2023-01-10T16:41:42.667Z,100317.69
2023-01-10T16:44:09.133Z,100313.84
2023-01-10T16:46:35.557Z,100306.84
2023-01-10T16:49:02.092Z,100300.34
2023-01-10T16:51:32.248Z,100303.59
2023-01-10T16:53:58.663Z,100294.78
2023-01-10T16:56:27.349Z,100294.63
2023-01-10T16:58:54.757Z,100297.06
2023-01-10T17:01:24.278Z,100296.78
2023-01-10T17:03:51.904Z,100297.81
2023-01-10T17:06:18.703Z,100294.81
2023-01-10T17:08:45.391Z,100296.34
2023-01-10T17:11:16.452Z,100294.88
2023-01-10T17:13:44.378Z,100294.97
2023-01-10T17:16:11.379Z,100289.72
2023-01-10T17:18:39.513Z,100296.38
2023-01-10T17:21:06.207Z,100295.94
2023-01-10T17:23:32.627Z,100298.66
2023-01-10T17:26:01.810Z,100304.66
2023-01-10T17:28:29.225Z,100297.97
2023-01-10T17:30:56.340Z,100311.13
2023-01-10T17:33:23.044Z,100304.00
2023-01-10T17:35:53.696Z,100313.72
2023-01-10T17:38:21.586Z,100307.88
2023-01-10T17:40:48.704Z,100301.72
2023-01-10T17:43:16.160Z,100305.09
2023-01-10T17:45:43.933Z,100303.38
2023-01-10T17:48:13.051Z,100303.75
2023-01-10T17:50:39.448Z,100305.56
2023-01-10T17:53:06.550Z,100296.72
2023-01-10T17:55:33.002Z,100297.56
2023-01-10T17:57:59.379Z,100300.44
2023-01-10T18:00:26.972Z,100296.25
2023-01-10T18:02:53.395Z,100298.53
2023-01-10T18:05:19.841Z,100301.72
2023-01-10T18:07:46.345Z,100296.13
2023-01-10T18:10:12.917Z,100301.97
2023-01-10T18:12:39.401Z,100311.66
2023-01-10T18:15:06.379Z,100314.72
2023-01-10T18:17:33.476Z,100309.16
2023-01-10T18:19:59.964Z,100313.69
2023-01-10T18:22:45.037Z,100316.03
2023-01-10T18:25:11.556Z,100319.44
2023-01-10T18:27:37.985Z,100308.47
2023-01-10T18:30:05.366Z,100307.97
2023-01-10T18:32:32.454Z,100307.69
2023-01-10T18:34:59.981Z,100313.34
2023-01-10T18:37:26.536Z,100310.16
2023-01-10T18:39:53.077Z,100318.38
2023-01-10T18:42:19.747Z,100314.00
2023-01-10T18:44:46.219Z,100306.41
2023-01-10T18:47:12.780Z,100304.59
2023-01-10T18:49:39.234Z,100307.38
2023-01-10T18:52:06.521Z,100305.22
2023-01-10T18:54:33.608Z,100305.03
2023-01-10T18:57:00.054Z,100306.06
2023-01-10T18:59:26.658Z,100302.94
2023-01-10T19:01:53.111Z,100297.78
2023-01-10T19:04:19.649Z,100291.03
2023-01-10T19:06:46.293Z,100291.34
2023-01-10T19:09:12.859Z,100292.91
2023-01-10T19:11:39.344Z,100283.31
2023-01-10T19:14:05.769Z,100287.69
2023-01-10T19:16:32.578Z,100291.16
2023-01-10T19:19:05.161Z,100282.56
2023-01-10T19:21:33.203Z,100297.31
2023-01-10T19:24:01.799Z,100289.75
2023-01-10T19:26:28.371Z,100291.59
2023-01-10T19:28:54.791Z,100287.19
2023-01-10T19:31:26.653Z,100276.78
2023-01-10T19:33:53.719Z,100275.63
2023-01-10T19:36:22.333Z,100281.69
2023-01-10T19:38:48.947Z,100275.94
2023-01-10T19:41:15.944Z,100284.53
2023-01-10T19:43:42.368Z,100280.25
2023-01-10T19:46:11.240Z,100278.81
2023-01-10T19:48:38.354Z,100278.53
2023-01-10T19:51:09.336Z,100272.94
2023-01-10T19:53:37.125Z,100269.66
2023-01-10T19:56:05.478Z,100270.59
2023-01-10T19:58:32.935Z,100266.78
2023-01-10T20:01:11.294Z,100265.88
2023-01-10T20:03:38.998Z,100258.59
2023-01-10T20:06:06.405Z,100259.53
2023-01-10T20:08:32.807Z,100259.44
2023-01-10T20:11:06.332Z,100264.63
2023-01-10T20:13:34.447Z,100262.69
2023-01-10T20:16:01.639Z,100254.84
2023-01-10T20:18:29.119Z,100254.00
2023-01-10T20:20:56.083Z,100251.66
2023-01-10T20:23:23.517Z,100255.75
2023-01-10T20:26:06.116Z,100253.31
2023-01-10T20:28:33.659Z,100257.78
2023-01-10T20:31:00.676Z,100249.00
2023-01-10T20:33:27.563Z,100245.94
2023-01-10T20:35:58.965Z,100244.72
2023-01-10T20:38:27.021Z,100246.34
2023-01-10T20:41:23.971Z,100246.63
2023-01-10T20:43:51.158Z,100246.97
2023-01-10T20:46:30.681Z,100258.41
2023-01-10T20:48:57.882Z,100242.97
2023-01-10T20:51:27.280Z,100250.44
2023-01-10T20:53:53.880Z,100245.03
2023-01-10T20:56:22.564Z,100251.25
2023-01-10T20:58:50.622Z,100252.91
2023-01-10T21:01:28.660Z,100244.31
2023-01-10T21:03:59.670Z,100248.41
2023-01-10T21:06:26.729Z,100248.72
2023-01-10T21:08:53.365Z,100236.66
2023-01-10T21:11:20.892Z,100238.59
2023-01-10T21:13:47.323Z,100238.44
2023-01-10T21:16:17.066Z,100231.41
2023-01-10T21:18:46.538Z,100239.19
2023-01-10T21:21:15.404Z,100224.47
2023-01-10T21:23:42.357Z,100227.50
2023-01-10T21:26:14.138Z,100226.41
2023-01-10T21:28:42.455Z,100224.41
2023-01-10T21:31:10.142Z,100221.34
2023-01-10T21:33:37.194Z,100230.06
2023-01-10T21:36:04.378Z,100232.22
2023-01-10T21:38:30.842Z,100237.44
2023-01-10T21:41:05.348Z,100221.97
2023-01-10T21:43:32.266Z,100234.81
2023-01-10T21:45:59.725Z,100232.66
2023-01-10T21:48:26.175Z,100233.63
2023-01-10T21:50:53.449Z,100240.47
2023-01-10T21:53:20.480Z,100227.75
2023-01-10T21:55:46.922Z,100232.22
2023-01-10T21:58:13.386Z,100234.16
2023-01-10T22:00:39.836Z,100239.97
2023-01-10T22:03:06.317Z,100231.34
2023-01-10T22:05:32.765Z,100240.09
2023-01-10T22:07:59.181Z,100220.31
2023-01-10T22:10:25.541Z,100223.50
2023-01-10T22:12:51.994Z,100230.34
2023-01-10T22:15:18.456Z,100222.97
2023-01-10T22:17:44.909Z,100220.31
2023-01-10T22:20:11.716Z,100211.03
2023-01-10T22:22:38.313Z,100209.84
2023-01-10T22:25:05.444Z,100200.19
2023-01-10T22:27:31.850Z,100196.91
2023-01-10T22:29:58.283Z,100195.56
2023-01-10T22:32:24.723Z,100194.75
2023-01-10T22:34:51.160Z,100183.38
2023-01-10T22:37:17.659Z,100180.41
2023-01-10T22:39:44.138Z,100182.75
2023-01-10T22:42:10.506Z,100164.03
2023-01-10T22:44:36.914Z,100154.13
2023-01-10T22:47:03.460Z,100164.09
2023-01-10T22:49:29.902Z,100155.03
2023-01-10T22:51:56.314Z,100162.47
2023-01-10T22:54:22.832Z,100157.56
2023-01-10T22:56:49.312Z,100156.88
2023-01-10T22:59:16.298Z,100148.50
2023-01-10T23:01:42.823Z,100151.25
2023-01-10T23:04:10.362Z,100153.09
2023-01-10T23:06:36.801Z,100146.63
2023-01-10T23:09:03.652Z,100149.22
2023-01-10T23:11:30.066Z,100145.94
2023-01-10T23:13:56.506Z,100138.28
2023-01-10T23:16:28.663Z,100137.41
2023-01-10T23:18:57.079Z,100132.72
2023-01-10T23:21:24.352Z,100136.81
2023-01-10T23:23:51.191Z,100131.44
2023-01-10T23:26:18.424Z,100127.66
2023-01-10T23:28:47.448Z,100129.88
2023-01-10T23:31:15.631Z,100120.69
2023-01-10T23:33:42.472Z,100117.09
2023-01-10T23:36:09.571Z,100112.50
2023-01-10T23:38:36.295Z,100108.31
2023-01-10T23:41:03.281Z,100111.22
2023-01-10T23:43:30.717Z,100107.28
2023-01-10T23:45:57.460Z,100105.78
2023-01-10T23:48:23.975Z,100095.69
2023-01-10T23:50:50.994Z,100100.59
2023-01-10T23:53:18.548Z,100092.69
2023-01-10T23:55:44.956Z,100083.88
2023-01-10T23:58:11.507Z,100082.75
